createdAt,value
2018-09-25T00:00:36.926Z,13.163757
2018-09-25T00:01:37.008Z,13.093262
2018-09-25T00:02:37.177Z,13.063049
2018-09-25T00:03:37.275Z,13.163757
2018-09-25T00:04:37.418Z,13.022766
2018-09-25T00:05:37.518Z,13.032837
2018-09-25T00:06:37.566Z,13.083191
2018-09-25T00:07:37.696Z,13.133545
2018-09-25T00:08:38.833Z,13.163757
2018-09-25T00:09:37.950Z,13.083191
2018-09-25T00:10:37.997Z,13.083191
2018-09-25T00:11:38.101Z,13.052979
2018-09-25T00:12:38.190Z,12.982483
2018-09-25T00:13:38.232Z,12.881775
2018-09-25T00:14:38.306Z,12.871704
2018-09-25T00:15:38.281Z,12.831421
2018-09-25T00:16:38.294Z,12.801208
2018-09-25T00:17:38.373Z,12.881775
2018-09-25T00:18:38.530Z,12.9422
2018-09-25T00:19:38.626Z,12.9422
2018-09-25T00:20:38.757Z,12.881775
2018-09-25T00:21:38.786Z,12.871704
2018-09-25T00:22:38.884Z,12.831421
2018-09-25T00:23:38.945Z,12.911987
2018-09-25T00:24:39.011Z,12.911987
2018-09-25T00:25:39.074Z,12.952271
2018-09-25T00:26:39.162Z,12.9422
2018-09-25T00:27:39.170Z,12.901917
2018-09-25T00:28:39.204Z,12.831421
2018-09-25T00:29:39.550Z,12.781067
2018-09-25T00:30:39.392Z,12.750854
2018-09-25T00:31:39.434Z,12.841492
2018-09-25T00:32:39.490Z,12.781067
2018-09-25T00:33:39.468Z,12.680359
2018-09-25T00:34:39.619Z,12.720642
2018-09-25T00:35:39.829Z,12.760925
2018-09-25T00:36:39.805Z,12.7005
2018-09-25T00:37:39.907Z,12.650146
2018-09-25T00:38:39.915Z,12.660217
2018-09-25T00:39:39.955Z,12.660217
2018-09-25T00:40:40.113Z,12.630005
2018-09-25T00:41:40.208Z,12.579651
2018-09-25T00:42:40.264Z,12.579651
2018-09-25T00:43:40.291Z,12.579651
2018-09-25T00:44:40.456Z,12.660217
2018-09-25T00:45:40.512Z,12.660217
2018-09-25T00:46:40.565Z,12.650146
2018-09-25T00:47:40.677Z,12.680359
2018-09-25T00:48:40.708Z,12.650146
2018-09-25T00:49:40.803Z,12.630005
2018-09-25T00:50:40.972Z,12.609863
2018-09-25T00:51:40.926Z,12.619934
2018-09-25T00:52:40.925Z,12.69043
2018-09-25T00:53:40.990Z,12.630005
2018-09-25T00:54:41.115Z,12.609863
2018-09-25T00:55:41.123Z,12.499084
2018-09-25T00:56:41.234Z,12.478943
2018-09-25T00:57:41.335Z,12.478943
2018-09-25T00:58:41.457Z,12.539368
2018-09-25T00:59:41.446Z,12.549438
2018-09-25T01:00:41.541Z,12.529297
2018-09-25T01:01:41.744Z,12.398376
2018-09-25T01:02:41.677Z,12.368164
2018-09-25T01:03:41.666Z,12.358093
2018-09-25T01:04:41.821Z,12.428589
2018-09-25T01:05:41.911Z,12.468872
2018-09-25T01:06:41.861Z,12.499084
2018-09-25T01:07:41.898Z,12.277527
2018-09-25T01:08:42.036Z,12.348022
2018-09-25T01:09:42.131Z,12.499084
2018-09-25T01:10:42.207Z,12.509155
2018-09-25T01:11:43.285Z,12.398376
2018-09-25T01:12:42.356Z,12.31781
2018-09-25T01:13:42.477Z,12.327881
2018-09-25T01:14:42.684Z,12.287598
2018-09-25T01:15:42.576Z,12.348022
2018-09-25T01:16:42.688Z,12.388306
2018-09-25T01:17:42.785Z,12.327881
2018-09-25T01:18:42.912Z,12.207031
2018-09-25T01:19:43.018Z,12.136536
2018-09-25T01:20:43.194Z,12.19696
2018-09-25T01:21:43.188Z,12.227173
2018-09-25T01:22:43.263Z,12.287598
2018-09-25T01:23:43.273Z,12.227173
2018-09-25T01:24:43.382Z,12.176819
2018-09-25T01:25:43.536Z,12.207031
2018-09-25T01:26:43.578Z,12.227173
2018-09-25T01:27:43.708Z,12.257385
2018-09-25T01:28:43.814Z,12.166748
2018-09-25T01:29:43.945Z,12.06604
2018-09-25T01:30:44.005Z,12.045898
2018-09-25T01:31:44.077Z,12.136536
2018-09-25T01:32:44.135Z,12.247314
2018-09-25T01:33:44.337Z,12.116394
2018-09-25T01:34:44.271Z,12.096252
2018-09-25T01:35:44.376Z,12.146606
2018-09-25T01:36:44.488Z,12.106323
2018-09-25T01:37:44.458Z,12.146606
2018-09-25T01:38:44.514Z,12.19696
2018-09-25T01:39:44.548Z,12.207031
2018-09-25T01:40:44.766Z,12.257385
2018-09-25T01:41:44.728Z,12.227173
2018-09-25T01:42:44.724Z,12.277527
2018-09-25T01:43:44.773Z,12.247314
2018-09-25T01:44:44.855Z,12.076111
2018-09-25T01:45:44.933Z,12.116394
2018-09-25T01:46:44.935Z,12.045898
2018-09-25T01:47:46.043Z,12.176819
2018-09-25T01:48:45.060Z,12.06604
2018-09-25T01:49:45.067Z,11.965332
2018-09-25T01:50:45.133Z,11.985474
2018-09-25T01:51:45.202Z,12.06604
2018-09-25T01:52:45.212Z,11.955261
2018-09-25T01:53:45.377Z,11.995544
2018-09-25T01:54:45.479Z,11.925049
2018-09-25T01:55:45.563Z,11.985474
2018-09-25T01:56:45.605Z,12.06604
2018-09-25T01:57:45.652Z,11.985474
2018-09-25T01:58:45.686Z,11.995544
2018-09-25T01:59:45.822Z,11.925049
2018-09-25T02:00:45.980Z,11.914978
2018-09-25T02:01:46.134Z,12.096252
2018-09-25T02:02:46.236Z,12.015686
2018-09-25T02:03:46.312Z,12.06604
2018-09-25T02:04:46.309Z,12.116394
2018-09-25T02:05:46.497Z,12.176819
2018-09-25T02:06:46.589Z,12.106323
2018-09-25T02:07:46.676Z,12.06604
2018-09-25T02:08:46.802Z,12.06604
2018-09-25T02:09:46.802Z,12.106323
2018-09-25T02:10:46.912Z,12.025757
2018-09-25T02:11:47.046Z,11.965332
2018-09-25T02:12:47.214Z,11.955261
2018-09-25T02:13:47.215Z,12.015686
2018-09-25T02:14:47.314Z,12.015686
2018-09-25T02:15:47.423Z,12.076111
2018-09-25T02:16:47.451Z,12.06604
2018-09-25T02:17:47.593Z,11.995544
2018-09-25T02:18:47.668Z,12.076111
2018-09-25T02:19:47.749Z,12.076111
2018-09-25T02:20:47.760Z,12.116394
2018-09-25T02:21:47.853Z,12.116394
2018-09-25T02:22:47.882Z,12.096252
2018-09-25T02:23:48.008Z,12.106323
2018-09-25T02:24:48.053Z,12.045898
2018-09-25T02:25:48.091Z,11.985474
2018-09-25T02:26:48.199Z,12.025757
2018-09-25T02:27:48.263Z,12.076111
2018-09-25T02:28:48.351Z,12.116394
2018-09-25T02:29:48.474Z,12.045898
2018-09-25T02:30:48.484Z,12.015686
2018-09-25T02:31:48.542Z,11.965332
2018-09-25T02:32:48.656Z,11.955261
2018-09-25T02:33:48.661Z,11.884766
2018-09-25T02:34:48.817Z,11.804199
2018-09-25T02:35:48.787Z,11.743774
2018-09-25T02:36:48.851Z,11.602783
2018-09-25T02:37:48.963Z,11.68335
2018-09-25T02:38:49.146Z,11.653137
2018-09-25T02:39:49.076Z,11.713562
2018-09-25T02:40:49.237Z,11.653137
2018-09-25T02:41:49.364Z,11.743774
2018-09-25T02:42:49.682Z,11.703491
2018-09-25T02:43:49.608Z,11.733704
2018-09-25T02:44:49.758Z,11.763916
2018-09-25T02:45:49.821Z,11.773987
2018-09-25T02:46:49.855Z,11.743774
2018-09-25T02:47:49.963Z,11.68335
2018-09-25T02:48:50.092Z,11.673279
2018-09-25T02:49:50.187Z,11.68335
2018-09-25T02:50:50.305Z,11.673279
2018-09-25T02:51:50.377Z,11.703491
2018-09-25T02:52:50.550Z,11.733704
2018-09-25T02:53:50.661Z,11.713562
2018-09-25T02:54:50.783Z,11.632996
2018-09-25T02:55:50.911Z,11.703491
2018-09-25T02:56:51.003Z,11.763916
2018-09-25T02:57:51.115Z,11.804199
2018-09-25T02:58:51.153Z,11.733704
2018-09-25T02:59:51.174Z,11.632996
2018-09-25T03:00:51.192Z,11.632996
2018-09-25T03:01:51.244Z,11.532288
2018-09-25T03:02:51.393Z,11.5625
2018-09-25T03:03:51.541Z,11.632996
2018-09-25T03:04:51.569Z,11.632996
2018-09-25T03:06:49.327Z,11.552429
2018-09-25T03:07:49.225Z,11.622925
2018-09-25T03:08:49.271Z,11.68335
2018-09-25T03:09:49.279Z,11.5625
2018-09-25T03:10:49.319Z,11.5625
2018-09-25T03:11:49.405Z,11.592712
2018-09-25T03:12:49.540Z,11.68335
2018-09-25T03:16:00.842Z,11.653137
2018-09-25T03:17:00.935Z,11.632996
2018-09-25T03:18:01.030Z,11.582642
2018-09-25T03:19:01.163Z,11.592712
2018-09-25T03:20:01.205Z,11.622925
2018-09-25T03:21:01.264Z,11.622925
2018-09-25T03:22:01.392Z,11.632996
2018-09-25T03:23:01.511Z,11.703491
2018-09-25T03:24:01.653Z,11.622925
2018-09-25T03:25:01.698Z,11.44165
2018-09-25T03:27:56.720Z,11.411438
2018-09-25T03:28:56.959Z,11.451721
2018-09-25T03:29:56.911Z,11.5625
2018-09-25T03:31:37.218Z,11.512146
2018-09-25T03:32:37.336Z,11.44165
2018-09-25T03:33:37.471Z,11.401367
2018-09-25T03:34:37.442Z,11.492004
2018-09-25T03:35:37.441Z,11.512146
2018-09-25T03:36:38.551Z,11.522217
2018-09-25T03:37:37.568Z,11.451721
2018-09-25T03:38:37.717Z,11.43158
2018-09-25T03:39:37.704Z,11.371155
2018-09-25T03:40:37.848Z,11.31073
2018-09-25T03:41:37.961Z,11.270447
2018-09-25T03:42:38.010Z,11.351013
2018-09-25T03:43:38.118Z,11.411438
2018-09-25T03:44:38.213Z,11.44165
2018-09-25T03:45:38.269Z,11.43158
2018-09-25T03:46:38.319Z,11.411438
2018-09-25T03:47:38.361Z,11.492004
2018-09-25T03:48:38.537Z,11.401367
2018-09-25T03:49:38.535Z,11.492004
2018-09-25T03:50:38.514Z,11.532288
2018-09-25T03:51:38.666Z,11.522217
2018-09-25T03:52:38.755Z,11.451721
2018-09-25T03:53:38.889Z,11.381226
2018-09-25T03:54:38.926Z,11.401367
2018-09-25T03:55:39.036Z,11.411438
2018-09-25T03:56:39.138Z,11.451721
2018-09-25T03:57:39.255Z,11.44165
2018-09-25T03:58:39.389Z,11.451721
2018-09-25T03:59:39.577Z,11.451721
2018-09-25T04:00:39.622Z,11.411438
2018-09-25T04:01:39.664Z,11.451721
2018-09-25T04:02:39.726Z,11.371155
2018-09-25T04:03:39.882Z,11.411438
2018-09-25T04:04:40.039Z,11.43158
2018-09-25T04:05:40.081Z,11.230164
2018-09-25T04:06:40.042Z,11.270447
2018-09-25T04:07:40.320Z,11.31073
2018-09-25T04:08:40.269Z,11.340942
2018-09-25T04:09:40.359Z,11.340942
2018-09-25T04:10:40.459Z,11.159668
2018-09-25T04:11:40.506Z,11.069031
2018-09-25T04:12:40.535Z,11.129456
2018-09-25T04:13:40.585Z,11.230164
2018-09-25T04:14:40.649Z,11.31073
2018-09-25T04:15:40.759Z,11.330872
2018-09-25T04:16:40.838Z,11.411438
2018-09-25T04:17:40.849Z,11.401367
2018-09-25T04:18:40.869Z,11.371155
2018-09-25T04:19:41.005Z,11.381226
2018-09-25T04:20:41.156Z,11.411438
2018-09-25T04:21:41.052Z,11.330872
2018-09-25T04:22:41.180Z,11.330872
2018-09-25T04:23:41.291Z,11.260376
2018-09-25T04:24:41.350Z,11.260376
2018-09-25T04:25:41.428Z,11.340942
2018-09-25T04:26:41.548Z,11.31073
2018-09-25T04:27:41.660Z,11.31073
2018-09-25T04:28:41.694Z,11.31073
2018-09-25T04:29:41.810Z,11.300659
2018-09-25T04:30:42.077Z,11.330872
2018-09-25T04:31:42.005Z,11.381226
2018-09-25T04:32:42.015Z,11.381226
2018-09-25T04:33:42.169Z,11.330872
2018-09-25T04:34:42.293Z,11.31073
2018-09-25T04:35:42.408Z,11.220093
2018-09-25T04:36:42.373Z,11.220093
2018-09-25T04:37:42.389Z,11.18988
2018-09-25T04:38:42.487Z,11.250305
2018-09-25T04:39:42.622Z,11.199951
2018-09-25T04:40:42.673Z,11.079102
2018-09-25T04:41:42.739Z,11.079102
2018-09-25T04:42:42.922Z,11.129456
2018-09-25T04:43:42.948Z,11.159668
2018-09-25T04:44:43.031Z,11.149597
2018-09-25T04:45:43.141Z,11.119385
2018-09-25T04:46:43.327Z,11.069031
2018-09-25T04:47:43.360Z,11.119385
2018-09-25T04:48:43.409Z,11.119385
2018-09-25T04:49:43.438Z,11.119385
2018-09-25T04:50:43.427Z,11.048889
2018-09-25T04:51:43.469Z,11.038818
2018-09-25T04:52:43.541Z,10.897827
2018-09-25T04:53:43.618Z,10.817261
2018-09-25T04:54:43.597Z,10.867615
2018-09-25T04:55:43.613Z,11.018677
2018-09-25T04:56:43.767Z,11.069031
2018-09-25T04:57:44.022Z,11.149597
2018-09-25T04:58:43.989Z,11.079102
2018-09-25T04:59:44.105Z,11.018677
2018-09-25T05:00:44.197Z,10.978394
2018-09-25T05:01:44.285Z,10.978394
2018-09-25T05:02:44.333Z,10.968323
2018-09-25T05:03:44.489Z,10.857544
2018-09-25T05:04:44.567Z,10.867615
2018-09-25T05:05:44.613Z,10.857544
2018-09-25T05:06:44.753Z,10.817261
2018-09-25T05:07:44.788Z,10.867615
2018-09-25T05:08:44.795Z,10.917969
2018-09-25T05:09:44.809Z,10.887756
2018-09-25T05:10:44.877Z,10.93811
2018-09-25T05:11:44.915Z,11.018677
2018-09-25T05:12:45.047Z,11.099243
2018-09-25T05:13:45.135Z,11.069031
2018-09-25T05:14:45.255Z,10.948181
2018-09-25T05:15:45.349Z,10.978394
2018-09-25T05:16:45.442Z,10.948181
2018-09-25T05:17:45.546Z,11.048889
2018-09-25T05:18:45.500Z,11.099243
2018-09-25T05:19:45.619Z,11.038818
2018-09-25T05:20:45.716Z,10.948181
2018-09-25T05:21:45.786Z,10.968323
2018-09-25T05:22:45.912Z,11.069031
2018-09-25T05:23:45.982Z,11.038818
2018-09-25T05:24:45.991Z,11.079102
2018-09-25T05:25:46.183Z,10.978394
2018-09-25T05:26:46.206Z,10.978394
2018-09-25T05:27:46.309Z,11.018677
2018-09-25T05:28:46.481Z,11.079102
2018-09-25T05:29:46.628Z,11.008606
2018-09-25T05:30:46.678Z,10.93811
2018-09-25T05:31:46.848Z,10.827332
2018-09-25T05:32:46.741Z,10.887756
2018-09-25T05:33:46.858Z,10.978394
2018-09-25T05:35:43.767Z,10.998535
2018-09-25T05:36:43.770Z,11.069031
2018-09-25T05:37:44.846Z,11.119385
2018-09-25T05:38:43.986Z,10.948181
2018-09-25T05:40:40.918Z,10.897827
2018-09-25T05:41:41.046Z,10.817261
2018-09-25T05:42:41.160Z,10.837402
2018-09-25T05:43:41.260Z,10.887756
2018-09-25T05:45:20.588Z,10.817261
2018-09-25T05:46:20.723Z,10.968323
2018-09-25T05:47:20.756Z,11.018677
2018-09-25T05:48:20.828Z,11.048889
2018-09-25T05:50:44.162Z,10.948181
2018-09-25T05:51:44.197Z,10.998535
2018-09-25T05:53:24.245Z,10.978394
2018-09-25T05:55:23.311Z,10.948181
2018-09-25T06:05:01.257Z,11.069031
2018-09-25T06:06:01.361Z,11.149597
2018-09-25T06:07:01.507Z,11.038818
2018-09-25T06:08:01.572Z,11.048889
2018-09-25T06:09:01.566Z,11.069031
2018-09-25T06:10:01.721Z,11.149597
2018-09-25T06:11:01.788Z,11.129456
2018-09-25T06:12:01.869Z,11.099243
2018-09-25T06:13:01.905Z,11.069031
2018-09-25T06:14:01.976Z,11.129456
2018-09-25T06:15:01.979Z,11.18988
2018-09-25T06:16:02.042Z,11.230164
2018-09-25T06:17:02.295Z,11.17981
2018-09-25T06:18:02.244Z,11.199951
2018-09-25T06:19:02.312Z,11.220093
2018-09-25T06:20:02.432Z,11.230164
2018-09-25T06:21:02.550Z,11.270447
2018-09-25T06:22:02.605Z,11.149597
2018-09-25T06:23:02.707Z,11.230164
2018-09-25T06:24:02.692Z,11.230164
2018-09-25T06:25:02.761Z,11.330872
2018-09-25T06:26:02.730Z,11.31073
2018-09-25T06:27:02.792Z,11.250305
2018-09-25T06:28:02.956Z,11.31073
2018-09-25T06:29:02.902Z,11.340942
2018-09-25T06:30:03.001Z,11.401367
2018-09-25T06:31:03.076Z,11.330872
2018-09-25T06:32:03.135Z,11.270447
2018-09-25T06:33:03.279Z,11.230164
2018-09-25T06:34:03.322Z,11.31073
2018-09-25T06:35:03.594Z,11.381226
2018-09-25T06:36:03.471Z,11.44165
2018-09-25T06:37:03.585Z,11.381226
2018-09-25T06:38:03.635Z,11.330872
2018-09-25T06:39:03.674Z,11.44165
2018-09-25T06:40:03.762Z,11.451721
2018-09-25T06:41:03.808Z,11.481934
2018-09-25T06:42:03.863Z,11.43158
2018-09-25T06:43:03.890Z,11.43158
2018-09-25T06:44:03.957Z,11.44165
2018-09-25T06:45:04.032Z,11.43158
2018-09-25T06:46:04.252Z,11.401367
2018-09-25T06:47:04.188Z,11.330872
2018-09-25T06:48:04.275Z,11.330872
2018-09-25T06:49:04.347Z,11.371155
2018-09-25T06:50:04.629Z,11.43158
2018-09-25T06:51:04.544Z,11.43158
2018-09-25T06:52:04.571Z,11.411438
2018-09-25T06:53:04.583Z,11.43158
2018-09-25T06:54:04.614Z,11.481934
2018-09-25T06:55:04.775Z,11.512146
2018-09-25T06:56:04.767Z,11.512146
2018-09-25T06:57:04.880Z,11.582642
2018-09-25T06:58:04.875Z,11.552429
2018-09-25T06:59:04.893Z,11.602783
2018-09-25T07:00:04.959Z,11.582642
2018-09-25T07:01:05.004Z,11.592712
2018-09-25T07:02:05.077Z,11.602783
2018-09-25T07:03:05.128Z,11.622925
2018-09-25T07:04:05.213Z,11.68335
2018-09-25T07:05:05.328Z,11.733704
2018-09-25T07:06:05.352Z,11.784058
2018-09-25T07:07:05.374Z,11.68335
2018-09-25T07:08:05.474Z,11.632996
2018-09-25T07:09:05.513Z,11.592712
2018-09-25T07:10:06.015Z,11.673279
2018-09-25T07:11:05.715Z,11.632996
2018-09-25T07:12:05.848Z,11.632996
2018-09-25T07:13:05.884Z,11.673279
2018-09-25T07:14:05.989Z,11.632996
2018-09-25T07:15:06.084Z,11.733704
2018-09-25T07:16:06.226Z,11.773987
2018-09-25T07:17:06.302Z,11.733704
2018-09-25T07:18:06.356Z,11.733704
2018-09-25T07:19:06.354Z,11.713562
2018-09-25T07:20:06.347Z,11.773987
2018-09-25T07:21:06.580Z,11.884766
2018-09-25T07:22:06.671Z,11.94519
2018-09-25T07:23:06.732Z,11.995544
2018-09-25T07:24:06.811Z,12.096252
2018-09-25T07:25:07.047Z,11.995544
2018-09-25T07:26:07.010Z,11.884766
2018-09-25T07:27:06.988Z,11.864624
2018-09-25T07:28:07.101Z,11.894836
2018-09-25T07:29:07.187Z,11.965332
2018-09-25T07:30:07.302Z,11.995544
2018-09-25T07:31:07.421Z,11.955261
2018-09-25T07:32:07.402Z,11.995544
2018-09-25T07:33:07.502Z,11.965332
2018-09-25T07:34:07.525Z,12.025757
2018-09-25T07:35:07.586Z,12.096252
2018-09-25T07:36:07.821Z,12.096252
2018-09-25T07:37:07.756Z,12.045898
2018-09-25T07:38:07.905Z,12.096252
2018-09-25T07:39:07.935Z,12.19696
2018-09-25T07:40:08.141Z,12.166748
2018-09-25T07:41:08.233Z,12.146606
2018-09-25T07:42:08.289Z,12.257385
2018-09-25T07:43:08.397Z,12.297668
2018-09-25T07:44:08.628Z,12.297668
2018-09-25T07:45:08.589Z,12.327881
2018-09-25T07:46:08.635Z,12.388306
2018-09-25T07:47:08.701Z,12.478943
2018-09-25T07:48:08.834Z,12.499084
2018-09-25T07:49:08.991Z,12.499084
2018-09-25T07:50:09.028Z,12.56958
2018-09-25T07:51:09.189Z,12.660217
2018-09-25T07:52:09.143Z,12.69043
2018-09-25T07:53:09.152Z,12.760925
2018-09-25T07:54:09.223Z,12.881775
2018-09-25T07:55:09.393Z,12.992554
2018-09-25T07:56:09.413Z,13.022766
2018-09-25T07:57:09.482Z,13.063049
2018-09-25T07:58:09.546Z,13.113403
2018-09-25T07:59:09.702Z,13.113403
2018-09-25T08:00:09.837Z,13.123474
2018-09-25T08:01:09.872Z,13.133545
2018-09-25T08:02:09.913Z,13.19397
2018-09-25T08:03:10.071Z,13.204041
2018-09-25T08:04:10.115Z,13.244324
2018-09-25T08:05:10.186Z,13.214111
2018-09-25T08:06:10.185Z,13.214111
2018-09-25T08:07:10.341Z,13.244324
2018-09-25T08:08:10.381Z,13.284607
2018-09-25T08:09:10.499Z,13.334961
2018-09-25T08:10:10.561Z,13.365173
2018-09-25T08:11:10.660Z,13.314819
2018-09-25T08:12:10.836Z,13.395386
2018-09-25T08:13:10.784Z,13.365173
2018-09-25T08:14:10.862Z,13.334961
2018-09-25T08:15:11.017Z,13.355103
2018-09-25T08:16:12.164Z,13.385315
2018-09-25T08:17:11.187Z,13.465881
2018-09-25T08:18:11.183Z,13.536377
2018-09-25T08:19:11.282Z,13.566589
2018-09-25T08:20:11.390Z,13.486023
2018-09-25T08:21:11.515Z,13.486023
2018-09-25T08:22:11.550Z,13.546448
2018-09-25T08:23:11.697Z,13.516235
2018-09-25T08:24:11.761Z,13.536377
2018-09-25T08:25:11.918Z,13.566589
2018-09-25T08:26:11.933Z,13.596802
2018-09-25T08:27:12.051Z,13.566589
2018-09-25T08:28:12.153Z,13.647156
2018-09-25T08:29:12.130Z,13.788147
2018-09-25T08:30:12.136Z,13.908997
2018-09-25T08:31:12.200Z,13.888855
2018-09-25T08:32:12.332Z,13.848572
2018-09-25T08:33:12.326Z,13.939209
2018-09-25T08:34:12.352Z,13.969421
2018-09-25T08:35:12.429Z,13.939209
2018-09-25T08:36:12.430Z,13.929138
2018-09-25T08:37:12.430Z,13.939209
2018-09-25T08:38:12.775Z,13.858643
2018-09-25T08:39:12.762Z,13.848572
2018-09-25T08:40:12.793Z,13.818359
2018-09-25T08:41:12.778Z,13.868713
2018-09-25T08:42:12.921Z,13.888855
2018-09-25T08:43:12.980Z,14.009705
2018-09-25T08:44:13.058Z,14.0802
2018-09-25T08:45:13.206Z,14.120483
2018-09-25T08:46:13.403Z,14.221191
2018-09-25T08:47:13.380Z,14.251404
2018-09-25T08:48:13.560Z,14.180908
2018-09-25T08:49:13.602Z,14.160767
2018-09-25T08:50:13.729Z,14.20105
2018-09-25T08:51:13.782Z,14.311829
2018-09-25T08:52:13.829Z,14.33197
2018-09-25T08:53:13.932Z,14.402466
2018-09-25T08:54:13.923Z,14.442749
2018-09-25T08:55:14.010Z,14.412537
2018-09-25T08:56:14.055Z,14.442749
2018-09-25T08:57:14.318Z,14.553528
2018-09-25T08:58:14.281Z,14.553528
2018-09-25T08:59:14.330Z,14.553528
2018-09-25T09:00:14.452Z,14.634094
2018-09-25T09:01:14.575Z,14.664307
2018-09-25T09:02:14.706Z,14.624023
2018-09-25T09:03:14.900Z,14.664307
2018-09-25T09:04:14.900Z,14.744873
2018-09-25T09:05:14.873Z,14.775085
2018-09-25T09:06:14.905Z,14.765015
2018-09-25T09:07:15.044Z,14.714661
2018-09-25T09:08:15.274Z,14.664307
2018-09-25T09:09:15.188Z,14.634094
2018-09-25T09:10:15.308Z,14.624023
2018-09-25T09:11:15.335Z,14.634094
2018-09-25T09:12:15.312Z,14.674377
2018-09-25T09:13:15.436Z,14.664307
2018-09-25T09:14:15.631Z,14.624023
2018-09-25T09:15:15.525Z,14.734802
2018-09-25T09:16:15.527Z,14.785156
2018-09-25T09:17:15.552Z,14.775085
2018-09-25T09:18:15.625Z,14.865723
2018-09-25T09:19:15.717Z,14.926147
2018-09-25T09:20:15.978Z,14.936218
2018-09-25T09:21:16.008Z,14.936218
2018-09-25T09:22:16.065Z,15.016785
2018-09-25T09:23:16.091Z,15.077209
2018-09-25T09:24:16.263Z,15.117493
2018-09-25T09:25:16.554Z,15.218201
2018-09-25T09:26:16.415Z,15.228271
2018-09-25T09:27:16.513Z,15.298767
2018-09-25T09:28:16.531Z,15.328979
2018-09-25T09:29:16.697Z,15.268555
2018-09-25T09:30:16.667Z,15.268555
2018-09-25T09:31:16.697Z,15.228271
2018-09-25T09:32:16.711Z,15.147705
2018-09-25T09:33:16.731Z,15.177917
2018-09-25T09:34:16.738Z,15.187988
2018-09-25T09:35:16.867Z,15.228271
2018-09-25T09:36:16.931Z,15.318909
2018-09-25T09:37:16.985Z,15.409546
2018-09-25T09:38:16.997Z,15.500183
2018-09-25T09:39:17.142Z,15.550537
2018-09-25T09:40:17.163Z,15.631104
2018-09-25T09:41:17.391Z,15.631104
2018-09-25T09:42:17.353Z,15.570679
2018-09-25T09:43:17.534Z,15.661316
2018-09-25T09:44:17.537Z,15.691528
2018-09-25T09:45:17.606Z,15.540466
2018-09-25T09:46:18.584Z,15.631104
2018-09-25T09:47:17.652Z,15.691528
2018-09-25T09:48:17.669Z,15.701599
2018-09-25T09:50:14.228Z,15.802307
2018-09-25T09:51:14.211Z,15.84259
2018-09-25T09:52:14.293Z,15.782166
2018-09-25T09:53:14.505Z,15.812378
2018-09-25T09:54:14.494Z,15.852661
2018-09-25T09:55:14.670Z,15.852661
2018-09-25T09:56:14.653Z,15.852661
2018-09-25T09:57:14.733Z,15.802307
2018-09-25T10:18:32.023Z,16.497192
2018-09-25T10:19:32.161Z,16.607971
2018-09-25T10:20:32.254Z,16.567688
2018-09-25T10:21:32.290Z,16.46698
2018-09-25T10:22:32.342Z,16.567688
2018-09-25T10:23:32.401Z,16.618042
2018-09-25T10:24:32.443Z,16.648254
2018-09-25T10:25:32.583Z,16.688538
2018-09-25T10:26:32.635Z,16.658325
2018-09-25T10:27:32.830Z,16.618042
2018-09-25T10:28:32.927Z,16.688538
2018-09-25T10:29:33.089Z,16.738892
2018-09-25T10:30:33.062Z,16.789246
2018-09-25T10:31:33.104Z,16.769104
2018-09-25T10:32:33.293Z,16.799316
2018-09-25T10:33:33.268Z,16.829529
2018-09-25T10:34:33.478Z,16.859741
2018-09-25T10:35:33.544Z,16.910095
2018-09-25T10:36:33.535Z,16.920166
2018-09-25T10:37:34.598Z,16.869812
2018-09-25T10:38:33.687Z,16.920166
2018-09-25T10:39:33.827Z,16.859741
2018-09-25T10:40:33.964Z,16.799316
2018-09-25T10:41:34.110Z,16.769104
2018-09-25T10:42:34.138Z,16.8396
2018-09-25T10:43:34.222Z,17.010803
2018-09-25T10:44:34.261Z,17.131653
2018-09-25T10:45:34.317Z,17.202148
2018-09-25T10:46:34.339Z,17.232361
2018-09-25T10:47:34.373Z,17.10144
2018-09-25T10:48:34.558Z,17.192078
2018-09-25T10:49:34.549Z,17.282715
2018-09-25T10:50:34.542Z,17.34314
2018-09-25T10:51:34.569Z,17.413635
2018-09-25T10:52:34.725Z,17.423706
2018-09-25T10:53:34.756Z,17.47406
2018-09-25T10:54:34.845Z,17.47406
2018-09-25T10:55:34.827Z,17.463989
2018-09-25T10:56:35.011Z,17.463989
2018-09-25T10:57:35.009Z,17.322998
2018-09-25T10:58:35.109Z,17.423706
2018-09-25T10:59:35.213Z,17.494202
2018-09-25T11:00:35.223Z,17.494202
2018-09-25T11:01:35.325Z,17.494202
2018-09-25T11:02:35.365Z,17.494202
2018-09-25T11:03:35.371Z,17.463989
2018-09-25T11:04:35.419Z,17.35321
2018-09-25T11:05:35.530Z,17.393494
2018-09-25T11:06:35.562Z,17.423706
2018-09-25T11:07:35.745Z,17.47406
2018-09-25T11:08:35.698Z,17.494202
2018-09-25T11:09:35.781Z,17.564697
2018-09-25T11:10:35.844Z,17.534485
2018-09-25T11:11:35.968Z,17.625122
2018-09-25T11:12:36.112Z,17.645264
2018-09-25T11:13:36.340Z,17.705688
2018-09-25T11:14:36.306Z,17.645264
2018-09-25T11:15:36.396Z,17.776184
2018-09-25T11:16:36.415Z,17.866821
2018-09-25T11:19:50.802Z,17.816467
2018-09-25T11:20:50.829Z,17.816467
2018-09-25T11:21:50.899Z,17.947388
2018-09-25T11:47:51.028Z,18.410645
2018-09-25T11:48:51.112Z,18.450928
2018-09-25T11:49:51.315Z,18.551636
2018-09-25T11:50:51.261Z,18.571777
2018-09-25T11:51:51.377Z,18.60199
2018-09-25T11:52:51.496Z,18.571777
2018-09-25T11:53:51.425Z,18.581848
2018-09-25T11:54:51.542Z,18.672485
2018-09-25T11:55:51.695Z,18.763123
2018-09-25T11:56:51.858Z,18.783264
2018-09-25T11:57:51.911Z,18.763123
2018-09-25T11:58:51.882Z,18.783264
2018-09-25T11:59:52.011Z,18.894043
2018-09-25T12:00:52.145Z,18.883972
2018-09-25T12:01:52.275Z,18.894043
2018-09-25T12:02:52.368Z,18.974609
2018-09-25T12:03:52.533Z,18.944397
2018-09-25T12:04:52.596Z,18.914185
2018-09-25T12:05:52.644Z,18.944397
2018-09-25T12:06:52.813Z,18.85376
2018-09-25T12:07:52.787Z,18.883972
2018-09-25T12:08:52.804Z,18.894043
2018-09-25T12:09:52.939Z,18.974609
2018-09-25T12:10:53.053Z,18.763123
2018-09-25T12:11:53.135Z,18.783264
2018-09-25T12:12:53.015Z,18.823547
2018-09-25T12:13:53.195Z,18.894043
2018-09-25T12:14:53.265Z,19.004822
2018-09-25T12:15:53.387Z,19.035034
2018-09-25T12:16:53.608Z,19.085388
2018-09-25T12:17:53.639Z,19.145813
2018-09-25T12:18:53.612Z,19.226379
2018-09-25T12:19:53.771Z,19.266663
2018-09-25T12:20:53.746Z,19.317017
2018-09-25T12:21:53.952Z,19.256592
2018-09-25T12:22:54.012Z,19.196167
2018-09-25T12:23:54.129Z,19.216309
2018-09-25T12:24:54.183Z,19.155884
2018-09-25T12:25:54.242Z,19.10553
2018-09-25T12:26:54.231Z,19.10553
2018-09-25T12:27:54.363Z,19.155884
2018-09-25T12:28:54.357Z,19.256592
2018-09-25T12:29:54.385Z,19.437866
2018-09-25T12:30:54.399Z,19.518433
2018-09-25T12:31:54.505Z,19.518433
2018-09-25T12:32:54.603Z,19.337158
2018-09-25T12:33:54.588Z,19.407654
2018-09-25T12:34:54.759Z,19.447937
2018-09-25T12:35:54.622Z,19.468079